sensor_id;sensor_type;location;lat;lon;timestamp;pressure;altitude;pressure_sealevel;temperature
15680;BMP180;15488;48.114;11.532;2023-12-07T00:01:12;95490.00;;;10.50
15680;BMP180;15488;48.114;11.532;2023-12-07T00:03:39;95494.00;;;10.50
15680;BMP180;15488;48.114;11.532;2023-12-07T00:06:07;95494.00;;;10.50
15680;BMP180;15488;48.114;11.532;2023-12-07T00:08:36;95510.00;;;10.50
15680;BMP180;15488;48.114;11.532;2023-12-07T00:11:04;95490.00;;;10.50
15680;BMP180;15488;48.114;11.532;2023-12-07T00:13:32;95492.00;;;10.50
15680;BMP180;15488;48.114;11.532;2023-12-07T00:16:00;95489.00;;;10.40
15680;BMP180;15488;48.114;11.532;2023-12-07T00:18:28;95488.00;;;10.40
15680;BMP180;15488;48.114;11.532;2023-12-07T00:20:55;95483.00;;;10.30
15680;BMP180;15488;48.114;11.532;2023-12-07T00:23:23;95490.00;;;10.20
15680;BMP180;15488;48.114;11.532;2023-12-07T00:25:52;95491.00;;;10.20
15680;BMP180;15488;48.114;11.532;2023-12-07T00:28:20;95483.00;;;10.30
15680;BMP180;15488;48.114;11.532;2023-12-07T00:30:47;95491.00;;;10.20
15680;BMP180;15488;48.114;11.532;2023-12-07T00:33:15;95504.00;;;10.20
15680;BMP180;15488;48.114;11.532;2023-12-07T00:35:43;95500.00;;;10.20
15680;BMP180;15488;48.114;11.532;2023-12-07T00:38:11;95499.00;;;10.10
15680;BMP180;15488;48.114;11.532;2023-12-07T00:40:38;95527.00;;;10.10
15680;BMP180;15488;48.114;11.532;2023-12-07T00:43:07;95510.00;;;10.10
15680;BMP180;15488;48.114;11.532;2023-12-07T00:45:35;95505.00;;;10.10
15680;BMP180;15488;48.114;11.532;2023-12-07T00:48:03;95506.00;;;10.10
15680;BMP180;15488;48.114;11.532;2023-12-07T00:50:31;95511.00;;;10.10
15680;BMP180;15488;48.114;11.532;2023-12-07T00:52:58;95512.00;;;10.00
15680;BMP180;15488;48.114;11.532;2023-12-07T00:55:26;95514.00;;;10.00
15680;BMP180;15488;48.114;11.532;2023-12-07T00:57:53;95510.00;;;10.00
15680;BMP180;15488;48.114;11.532;2023-12-07T01:00:22;95520.00;;;9.90
15680;BMP180;15488;48.114;11.532;2023-12-07T01:02:50;95520.00;;;9.90
15680;BMP180;15488;48.114;11.532;2023-12-07T01:05:18;95524.00;;;9.90
15680;BMP180;15488;48.114;11.532;2023-12-07T01:07:45;95525.00;;;9.90
15680;BMP180;15488;48.114;11.532;2023-12-07T01:10:13;95520.00;;;9.80
15680;BMP180;15488;48.114;11.532;2023-12-07T01:12:40;95530.00;;;9.80
15680;BMP180;15488;48.114;11.532;2023-12-07T01:15:08;95533.00;;;9.80
15680;BMP180;15488;48.114;11.532;2023-12-07T01:17:37;95529.00;;;9.70
15680;BMP180;15488;48.114;11.532;2023-12-07T01:20:06;95536.00;;;9.70
15680;BMP180;15488;48.114;11.532;2023-12-07T01:22:38;95532.00;;;9.70
15680;BMP180;15488;48.114;11.532;2023-12-07T01:25:07;95334.00;;;9.60
15680;BMP180;15488;48.114;11.532;2023-12-07T01:27:34;95542.00;;;9.60
15680;BMP180;15488;48.114;11.532;2023-12-07T01:30:03;95544.00;;;9.60
15680;BMP180;15488;48.114;11.532;2023-12-07T01:32:31;95548.00;;;9.60
15680;BMP180;15488;48.114;11.532;2023-12-07T01:35:00;95556.00;;;9.50
15680;BMP180;15488;48.114;11.532;2023-12-07T01:37:28;95556.00;;;9.50
15680;BMP180;15488;48.114;11.532;2023-12-07T01:39:56;95559.00;;;9.40
15680;BMP180;15488;48.114;11.532;2023-12-07T01:42:24;95550.00;;;9.40
15680;BMP180;15488;48.114;11.532;2023-12-07T01:44:52;95560.00;;;9.40
15680;BMP180;15488;48.114;11.532;2023-12-07T01:47:19;95551.00;;;9.30
15680;BMP180;15488;48.114;11.532;2023-12-07T01:49:47;95570.00;;;9.30
15680;BMP180;15488;48.114;11.532;2023-12-07T01:52:17;95568.00;;;9.20
15680;BMP180;15488;48.114;11.532;2023-12-07T01:54:44;95567.00;;;9.30
15680;BMP180;15488;48.114;11.532;2023-12-07T01:57:12;95566.00;;;9.30
15680;BMP180;15488;48.114;11.532;2023-12-07T01:59:39;95570.00;;;9.20
15680;BMP180;15488;48.114;11.532;2023-12-07T02:02:07;95576.00;;;9.20
15680;BMP180;15488;48.114;11.532;2023-12-07T02:04:35;95580.00;;;9.20
15680;BMP180;15488;48.114;11.532;2023-12-07T02:07:04;95579.00;;;9.10
15680;BMP180;15488;48.114;11.532;2023-12-07T02:09:33;95580.00;;;9.10
15680;BMP180;15488;48.114;11.532;2023-12-07T02:12:00;95584.00;;;9.10
15680;BMP180;15488;48.114;11.532;2023-12-07T02:14:28;95582.00;;;9.10
15680;BMP180;15488;48.114;11.532;2023-12-07T02:17:01;95590.00;;;9.10
15680;BMP180;15488;48.114;11.532;2023-12-07T02:19:47;95591.00;;;9.10
15680;BMP180;15488;48.114;11.532;2023-12-07T02:22:21;95596.00;;;9.10
15680;BMP180;15488;48.114;11.532;2023-12-07T02:25:07;95593.00;;;9.00
15680;BMP180;15488;48.114;11.532;2023-12-07T02:27:41;95593.00;;;9.00
15680;BMP180;15488;48.114;11.532;2023-12-07T02:30:10;95598.00;;;8.90
15680;BMP180;15488;48.114;11.532;2023-12-07T02:32:38;95596.00;;;9.00
15680;BMP180;15488;48.114;11.532;2023-12-07T02:35:07;95620.00;;;8.90
15680;BMP180;15488;48.114;11.532;2023-12-07T02:37:41;95597.00;;;8.90
15680;BMP180;15488;48.114;11.532;2023-12-07T02:40:10;95596.00;;;9.00
15680;BMP180;15488;48.114;11.532;2023-12-07T02:42:40;95597.00;;;9.00
15680;BMP180;15488;48.114;11.532;2023-12-07T02:45:10;95601.00;;;9.00
15680;BMP180;15488;48.114;11.532;2023-12-07T02:47:38;95604.00;;;9.00
15680;BMP180;15488;48.114;11.532;2023-12-07T02:50:07;95600.00;;;9.00
15680;BMP180;15488;48.114;11.532;2023-12-07T02:52:34;95606.00;;;9.00
15680;BMP180;15488;48.114;11.532;2023-12-07T02:55:02;95604.00;;;9.00
15680;BMP180;15488;48.114;11.532;2023-12-07T02:57:30;95602.00;;;9.10
15680;BMP180;15488;48.114;11.532;2023-12-07T03:00:01;95604.00;;;9.00
15680;BMP180;15488;48.114;11.532;2023-12-07T03:02:32;95610.00;;;9.00
15680;BMP180;15488;48.114;11.532;2023-12-07T03:05:00;95611.00;;;9.00
15680;BMP180;15488;48.114;11.532;2023-12-07T03:07:27;95621.00;;;9.10
15680;BMP180;15488;48.114;11.532;2023-12-07T03:09:55;95622.00;;;9.00
15680;BMP180;15488;48.114;11.532;2023-12-07T03:12:23;95617.00;;;9.00
15680;BMP180;15488;48.114;11.532;2023-12-07T03:14:50;95611.00;;;9.00
15680;BMP180;15488;48.114;11.532;2023-12-07T03:17:19;95616.00;;;9.00
15680;BMP180;15488;48.114;11.532;2023-12-07T03:19:47;95620.00;;;9.00
15680;BMP180;15488;48.114;11.532;2023-12-07T03:22:15;95619.00;;;9.00
15680;BMP180;15488;48.114;11.532;2023-12-07T03:24:46;95608.00;;;9.00
15680;BMP180;15488;48.114;11.532;2023-12-07T03:27:14;95611.00;;;9.00
15680;BMP180;15488;48.114;11.532;2023-12-07T03:29:41;95611.00;;;9.00
15680;BMP180;15488;48.114;11.532;2023-12-07T03:32:09;95614.00;;;8.90
15680;BMP180;15488;48.114;11.532;2023-12-07T03:34:38;95615.00;;;8.90
15680;BMP180;15488;48.114;11.532;2023-12-07T03:37:05;95608.00;;;8.90
15680;BMP180;15488;48.114;11.532;2023-12-07T03:39:33;95623.00;;;9.00
15680;BMP180;15488;48.114;11.532;2023-12-07T03:42:01;95615.00;;;9.00
15680;BMP180;15488;48.114;11.532;2023-12-07T03:44:28;95619.00;;;9.00
15680;BMP180;15488;48.114;11.532;2023-12-07T03:46:57;95616.00;;;9.00
15680;BMP180;15488;48.114;11.532;2023-12-07T03:49:24;95624.00;;;9.10
15680;BMP180;15488;48.114;11.532;2023-12-07T03:51:53;95624.00;;;9.00
15680;BMP180;15488;48.114;11.532;2023-12-07T03:54:21;95621.00;;;9.10
15680;BMP180;15488;48.114;11.532;2023-12-07T03:56:48;95625.00;;;9.00
15680;BMP180;15488;48.114;11.532;2023-12-07T03:59:16;95611.00;;;9.00
15680;BMP180;15488;48.114;11.532;2023-12-07T04:01:44;95622.00;;;9.00
15680;BMP180;15488;48.114;11.532;2023-12-07T04:04:11;95625.00;;;9.10
15680;BMP180;15488;48.114;11.532;2023-12-07T04:06:39;95626.00;;;9.00
15680;BMP180;15488;48.114;11.532;2023-12-07T04:09:08;95627.00;;;9.00
15680;BMP180;15488;48.114;11.532;2023-12-07T04:11:37;95620.00;;;9.00
15680;BMP180;15488;48.114;11.532;2023-12-07T04:14:07;95619.00;;;9.10
15680;BMP180;15488;48.114;11.532;2023-12-07T04:16:35;95621.00;;;9.00
15680;BMP180;15488;48.114;11.532;2023-12-07T04:19:02;95626.00;;;9.00
15680;BMP180;15488;48.114;11.532;2023-12-07T04:21:30;95636.00;;;9.00
15680;BMP180;15488;48.114;11.532;2023-12-07T04:23:58;95633.00;;;9.00
15680;BMP180;15488;48.114;11.532;2023-12-07T04:26:27;95638.00;;;9.00
15680;BMP180;15488;48.114;11.532;2023-12-07T04:28:54;95637.00;;;9.00
15680;BMP180;15488;48.114;11.532;2023-12-07T04:31:22;95639.00;;;9.00
15680;BMP180;15488;48.114;11.532;2023-12-07T04:33:49;95635.00;;;9.00
15680;BMP180;15488;48.114;11.532;2023-12-07T04:36:19;95648.00;;;9.00
15680;BMP180;15488;48.114;11.532;2023-12-07T04:38:48;95641.00;;;9.00
15680;BMP180;15488;48.114;11.532;2023-12-07T04:41:16;95657.00;;;9.00
15680;BMP180;15488;48.114;11.532;2023-12-07T04:43:45;95651.00;;;8.90
15680;BMP180;15488;48.114;11.532;2023-12-07T04:46:13;95652.00;;;8.90
15680;BMP180;15488;48.114;11.532;2023-12-07T04:48:42;95655.00;;;9.00
15680;BMP180;15488;48.114;11.532;2023-12-07T04:51:09;95658.00;;;9.00
15680;BMP180;15488;48.114;11.532;2023-12-07T04:53:37;95658.00;;;8.90
15680;BMP180;15488;48.114;11.532;2023-12-07T04:56:05;95664.00;;;8.90
15680;BMP180;15488;48.114;11.532;2023-12-07T04:58:39;95655.00;;;8.90
15680;BMP180;15488;48.114;11.532;2023-12-07T05:01:08;95654.00;;;8.80
15680;BMP180;15488;48.114;11.532;2023-12-07T05:03:36;95662.00;;;8.80
15680;BMP180;15488;48.114;11.532;2023-12-07T05:06:07;95654.00;;;8.70
15680;BMP180;15488;48.114;11.532;2023-12-07T05:08:34;95651.00;;;8.70
15680;BMP180;15488;48.114;11.532;2023-12-07T05:11:02;95652.00;;;8.70
15680;BMP180;15488;48.114;11.532;2023-12-07T05:13:30;95652.00;;;8.70
15680;BMP180;15488;48.114;11.532;2023-12-07T05:15:59;95650.00;;;8.60
15680;BMP180;15488;48.114;11.532;2023-12-07T05:18:31;95654.00;;;8.60
15680;BMP180;15488;48.114;11.532;2023-12-07T05:20:58;95656.00;;;8.60
15680;BMP180;15488;48.114;11.532;2023-12-07T05:23:26;95649.00;;;8.60
15680;BMP180;15488;48.114;11.532;2023-12-07T05:25:57;95647.00;;;8.60
15680;BMP180;15488;48.114;11.532;2023-12-07T05:28:27;95646.00;;;8.70
15680;BMP180;15488;48.114;11.532;2023-12-07T05:30:59;95648.00;;;8.60
15680;BMP180;15488;48.114;11.532;2023-12-07T05:33:28;95652.00;;;8.60
15680;BMP180;15488;48.114;11.532;2023-12-07T05:35:56;95644.00;;;8.60
15680;BMP180;15488;48.114;11.532;2023-12-07T05:38:24;95649.00;;;8.60
15680;BMP180;15488;48.114;11.532;2023-12-07T05:40:52;95650.00;;;8.60
15680;BMP180;15488;48.114;11.532;2023-12-07T05:43:19;95647.00;;;8.60
15680;BMP180;15488;48.114;11.532;2023-12-07T05:45:47;95641.00;;;8.60
15680;BMP180;15488;48.114;11.532;2023-12-07T05:48:20;95652.00;;;8.60
15680;BMP180;15488;48.114;11.532;2023-12-07T05:50:50;95647.00;;;8.60
15680;BMP180;15488;48.114;11.532;2023-12-07T05:53:34;95644.00;;;8.60
15680;BMP180;15488;48.114;11.532;2023-12-07T05:56:19;95640.00;;;8.50
15680;BMP180;15488;48.114;11.532;2023-12-07T05:58:47;95644.00;;;8.60
15680;BMP180;15488;48.114;11.532;2023-12-07T06:01:17;95645.00;;;8.50
15680;BMP180;15488;48.114;11.532;2023-12-07T06:03:45;95646.00;;;8.50
15680;BMP180;15488;48.114;11.532;2023-12-07T06:06:14;95641.00;;;8.50
15680;BMP180;15488;48.114;11.532;2023-12-07T06:08:41;95643.00;;;8.50
15680;BMP180;15488;48.114;11.532;2023-12-07T06:11:09;95641.00;;;8.40
15680;BMP180;15488;48.114;11.532;2023-12-07T06:13:37;95645.00;;;8.40
15680;BMP180;15488;48.114;11.532;2023-12-07T06:16:05;95646.00;;;8.30
15680;BMP180;15488;48.114;11.532;2023-12-07T06:18:43;95644.00;;;8.30
15680;BMP180;15488;48.114;11.532;2023-12-07T06:21:18;95643.00;;;8.30
15680;BMP180;15488;48.114;11.532;2023-12-07T06:23:47;95650.00;;;8.30
15680;BMP180;15488;48.114;11.532;2023-12-07T06:26:17;95650.00;;;8.20
15680;BMP180;15488;48.114;11.532;2023-12-07T06:28:45;95646.00;;;8.20
15680;BMP180;15488;48.114;11.532;2023-12-07T06:31:13;95651.00;;;8.30
15680;BMP180;15488;48.114;11.532;2023-12-07T06:33:42;95651.00;;;8.30
15680;BMP180;15488;48.114;11.532;2023-12-07T06:36:09;95649.00;;;8.20
15680;BMP180;15488;48.114;11.532;2023-12-07T06:38:39;95649.00;;;8.30
15680;BMP180;15488;48.114;11.532;2023-12-07T06:41:07;95656.00;;;8.20
15680;BMP180;15488;48.114;11.532;2023-12-07T06:43:35;95654.00;;;8.20
15680;BMP180;15488;48.114;11.532;2023-12-07T06:46:02;95662.00;;;8.20
15680;BMP180;15488;48.114;11.532;2023-12-07T06:48:30;95664.00;;;8.20
15680;BMP180;15488;48.114;11.532;2023-12-07T06:50:58;95663.00;;;8.10
15680;BMP180;15488;48.114;11.532;2023-12-07T06:53:30;95663.00;;;8.10
15680;BMP180;15488;48.114;11.532;2023-12-07T06:55:59;95660.00;;;8.00
15680;BMP180;15488;48.114;11.532;2023-12-07T06:58:26;95658.00;;;7.90
15680;BMP180;15488;48.114;11.532;2023-12-07T07:00:54;95671.00;;;7.90
15680;BMP180;15488;48.114;11.532;2023-12-07T07:03:22;95661.00;;;7.80
15680;BMP180;15488;48.114;11.532;2023-12-07T07:05:50;95669.00;;;7.70
15680;BMP180;15488;48.114;11.532;2023-12-07T07:08:18;95666.00;;;7.80
15680;BMP180;15488;48.114;11.532;2023-12-07T07:10:45;95662.00;;;7.70
15680;BMP180;15488;48.114;11.532;2023-12-07T07:13:15;95677.00;;;7.70
15680;BMP180;15488;48.114;11.532;2023-12-07T07:15:43;95667.00;;;7.70
15680;BMP180;15488;48.114;11.532;2023-12-07T07:18:11;95666.00;;;7.70
15680;BMP180;15488;48.114;11.532;2023-12-07T07:20:39;95666.00;;;7.80
15680;BMP180;15488;48.114;11.532;2023-12-07T07:23:06;95669.00;;;7.80
15680;BMP180;15488;48.114;11.532;2023-12-07T07:25:34;95663.00;;;7.80
15680;BMP180;15488;48.114;11.532;2023-12-07T07:28:02;95673.00;;;7.80
15680;BMP180;15488;48.114;11.532;2023-12-07T07:30:31;95677.00;;;7.80
15680;BMP180;15488;48.114;11.532;2023-12-07T07:32:59;95676.00;;;7.80
15680;BMP180;15488;48.114;11.532;2023-12-07T07:35:27;95680.00;;;7.80
15680;BMP180;15488;48.114;11.532;2023-12-07T07:37:55;95681.00;;;7.80
15680;BMP180;15488;48.114;11.532;2023-12-07T07:40:22;95682.00;;;7.90
15680;BMP180;15488;48.114;11.532;2023-12-07T07:42:51;95679.00;;;7.90
15680;BMP180;15488;48.114;11.532;2023-12-07T07:45:18;95677.00;;;7.90
15680;BMP180;15488;48.114;11.532;2023-12-07T07:47:47;95672.00;;;7.90
15680;BMP180;15488;48.114;11.532;2023-12-07T07:50:15;95677.00;;;7.90
15680;BMP180;15488;48.114;11.532;2023-12-07T07:52:43;95679.00;;;7.90
15680;BMP180;15488;48.114;11.532;2023-12-07T07:55:11;95674.00;;;8.10
15680;BMP180;15488;48.114;11.532;2023-12-07T07:57:39;95673.00;;;8.10
15680;BMP180;15488;48.114;11.532;2023-12-07T08:00:07;95671.00;;;8.10
15680;BMP180;15488;48.114;11.532;2023-12-07T08:02:35;95680.00;;;8.20
15680;BMP180;15488;48.114;11.532;2023-12-07T08:05:05;95677.00;;;8.20
15680;BMP180;15488;48.114;11.532;2023-12-07T08:07:33;95680.00;;;8.30
15680;BMP180;15488;48.114;11.532;2023-12-07T08:10:00;95672.00;;;8.20
15680;BMP180;15488;48.114;11.532;2023-12-07T08:12:29;95672.00;;;8.30
15680;BMP180;15488;48.114;11.532;2023-12-07T08:14:57;95672.00;;;8.40
15680;BMP180;15488;48.114;11.532;2023-12-07T08:17:24;95671.00;;;8.30
15680;BMP180;15488;48.114;11.532;2023-12-07T08:19:52;95669.00;;;8.40
15680;BMP180;15488;48.114;11.532;2023-12-07T08:22:21;95662.00;;;8.40
15680;BMP180;15488;48.114;11.532;2023-12-07T08:24:49;95668.00;;;8.40
15680;BMP180;15488;48.114;11.532;2023-12-07T08:27:17;95666.00;;;8.40
15680;BMP180;15488;48.114;11.532;2023-12-07T08:29:45;95671.00;;;8.40
15680;BMP180;15488;48.114;11.532;2023-12-07T08:32:12;95671.00;;;8.60
15680;BMP180;15488;48.114;11.532;2023-12-07T08:34:40;95668.00;;;8.60
15680;BMP180;15488;48.114;11.532;2023-12-07T08:37:08;95661.00;;;8.70
15680;BMP180;15488;48.114;11.532;2023-12-07T08:39:37;95672.00;;;8.80
15680;BMP180;15488;48.114;11.532;2023-12-07T08:42:05;95674.00;;;8.80
15680;BMP180;15488;48.114;11.532;2023-12-07T08:44:32;95669.00;;;8.90
15680;BMP180;15488;48.114;11.532;2023-12-07T08:47:00;95663.00;;;8.90
15680;BMP180;15488;48.114;11.532;2023-12-07T08:49:28;95660.00;;;9.00
15680;BMP180;15488;48.114;11.532;2023-12-07T08:51:57;95665.00;;;9.00
15680;BMP180;15488;48.114;11.532;2023-12-07T08:54:25;95668.00;;;9.00
15680;BMP180;15488;48.114;11.532;2023-12-07T08:56:54;95663.00;;;9.00
15680;BMP180;15488;48.114;11.532;2023-12-07T08:59:22;95666.00;;;9.10
15680;BMP180;15488;48.114;11.532;2023-12-07T09:01:49;95667.00;;;9.10
15680;BMP180;15488;48.114;11.532;2023-12-07T09:04:17;95672.00;;;9.10
15680;BMP180;15488;48.114;11.532;2023-12-07T09:06:44;95671.00;;;9.10
15680;BMP180;15488;48.114;11.532;2023-12-07T09:09:12;95662.00;;;9.10
15680;BMP180;15488;48.114;11.532;2023-12-07T09:11:40;95662.00;;;9.20
15680;BMP180;15488;48.114;11.532;2023-12-07T09:14:09;95654.00;;;9.20
15680;BMP180;15488;48.114;11.532;2023-12-07T09:16:43;95651.00;;;9.20
15680;BMP180;15488;48.114;11.532;2023-12-07T09:19:11;95656.00;;;9.30
15680;BMP180;15488;48.114;11.532;2023-12-07T09:21:40;95646.00;;;9.30
15680;BMP180;15488;48.114;11.532;2023-12-07T09:24:07;95649.00;;;9.30
15680;BMP180;15488;48.114;11.532;2023-12-07T09:26:35;95660.00;;;9.40
15680;BMP180;15488;48.114;11.532;2023-12-07T09:29:03;95660.00;;;9.40
15680;BMP180;15488;48.114;11.532;2023-12-07T09:31:31;95658.00;;;9.40
15680;BMP180;15488;48.114;11.532;2023-12-07T09:33:58;95658.00;;;9.50
15680;BMP180;15488;48.114;11.532;2023-12-07T09:36:26;95652.00;;;9.50
15680;BMP180;15488;48.114;11.532;2023-12-07T09:38:54;95644.00;;;9.50
15680;BMP180;15488;48.114;11.532;2023-12-07T09:41:22;95647.00;;;9.60
15680;BMP180;15488;48.114;11.532;2023-12-07T09:43:51;95647.00;;;9.60
15680;BMP180;15488;48.114;11.532;2023-12-07T09:46:19;95643.00;;;9.60
15680;BMP180;15488;48.114;11.532;2023-12-07T09:48:49;95636.00;;;9.60
15680;BMP180;15488;48.114;11.532;2023-12-07T09:51:17;95641.00;;;9.70
15680;BMP180;15488;48.114;11.532;2023-12-07T09:53:46;95635.00;;;9.70
15680;BMP180;15488;48.114;11.532;2023-12-07T09:56:15;95636.00;;;9.80
15680;BMP180;15488;48.114;11.532;2023-12-07T09:58:43;95637.00;;;9.80
15680;BMP180;15488;48.114;11.532;2023-12-07T10:01:10;95636.00;;;9.80
15680;BMP180;15488;48.114;11.532;2023-12-07T10:03:41;95635.00;;;9.80
15680;BMP180;15488;48.114;11.532;2023-12-07T10:06:10;95630.00;;;9.90
15680;BMP180;15488;48.114;11.532;2023-12-07T10:08:38;95617.00;;;9.90
15680;BMP180;15488;48.114;11.532;2023-12-07T10:11:07;95622.00;;;9.90
15680;BMP180;15488;48.114;11.532;2023-12-07T10:13:36;95616.00;;;10.00
15680;BMP180;15488;48.114;11.532;2023-12-07T10:16:08;95619.00;;;10.00
15680;BMP180;15488;48.114;11.532;2023-12-07T10:18:36;95619.00;;;10.00
15680;BMP180;15488;48.114;11.532;2023-12-07T10:21:06;95623.00;;;10.10
15680;BMP180;15488;48.114;11.532;2023-12-07T10:23:36;95625.00;;;10.10
15680;BMP180;15488;48.114;11.532;2023-12-07T10:26:05;95621.00;;;10.10
15680;BMP180;15488;48.114;11.532;2023-12-07T10:28:35;95622.00;;;10.10
15680;BMP180;15488;48.114;11.532;2023-12-07T10:31:03;95614.00;;;10.20
15680;BMP180;15488;48.114;11.532;2023-12-07T10:33:31;95616.00;;;10.20
15680;BMP180;15488;48.114;11.532;2023-12-07T10:35:58;95611.00;;;10.30
15680;BMP180;15488;48.114;11.532;2023-12-07T10:38:26;95611.00;;;10.30
15680;BMP180;15488;48.114;11.532;2023-12-07T10:41:05;95608.00;;;10.30
15680;BMP180;15488;48.114;11.532;2023-12-07T10:43:37;95605.00;;;10.30
15680;BMP180;15488;48.114;11.532;2023-12-07T10:46:05;95597.00;;;10.40
15680;BMP180;15488;48.114;11.532;2023-12-07T10:48:35;95596.00;;;10.40
15680;BMP180;15488;48.114;11.532;2023-12-07T10:51:06;95587.00;;;10.40
15680;BMP180;15488;48.114;11.532;2023-12-07T10:53:40;95583.00;;;10.40
15680;BMP180;15488;48.114;11.532;2023-12-07T10:56:13;95584.00;;;10.50
15680;BMP180;15488;48.114;11.532;2023-12-07T10:58:44;95581.00;;;10.50
15680;BMP180;15488;48.114;11.532;2023-12-07T11:01:12;95584.00;;;10.50
15680;BMP180;15488;48.114;11.532;2023-12-07T11:03:40;95581.00;;;10.60
15680;BMP180;15488;48.114;11.532;2023-12-07T11:06:09;95583.00;;;10.60
15680;BMP180;15488;48.114;11.532;2023-12-07T11:08:41;95580.00;;;10.60
15680;BMP180;15488;48.114;11.532;2023-12-07T11:11:18;95580.00;;;10.60
15680;BMP180;15488;48.114;11.532;2023-12-07T11:13:52;95574.00;;;10.70
15680;BMP180;15488;48.114;11.532;2023-12-07T11:16:29;95569.00;;;10.70
15680;BMP180;15488;48.114;11.532;2023-12-07T11:18:57;95575.00;;;10.70
15680;BMP180;15488;48.114;11.532;2023-12-07T11:21:25;95569.00;;;10.80
15680;BMP180;15488;48.114;11.532;2023-12-07T11:23:53;95569.00;;;10.90
15680;BMP180;15488;48.114;11.532;2023-12-07T11:26:23;95564.00;;;10.80
15680;BMP180;15488;48.114;11.532;2023-12-07T11:28:50;95568.00;;;10.90
15680;BMP180;15488;48.114;11.532;2023-12-07T11:31:19;95564.00;;;10.90
15680;BMP180;15488;48.114;11.532;2023-12-07T11:33:47;95554.00;;;11.00
15680;BMP180;15488;48.114;11.532;2023-12-07T11:36:16;95550.00;;;11.10
15680;BMP180;15488;48.114;11.532;2023-12-07T11:39:15;95551.00;;;11.00
15680;BMP180;15488;48.114;11.532;2023-12-07T11:41:51;95542.00;;;10.80
15680;BMP180;15488;48.114;11.532;2023-12-07T11:44:24;95538.00;;;11.10
15680;BMP180;15488;48.114;11.532;2023-12-07T11:46:51;95531.00;;;11.20
15680;BMP180;15488;48.114;11.532;2023-12-07T11:49:20;95533.00;;;11.20
15680;BMP180;15488;48.114;11.532;2023-12-07T11:51:48;95537.00;;;11.10
15680;BMP180;15488;48.114;11.532;2023-12-07T11:54:16;95533.00;;;11.10
15680;BMP180;15488;48.114;11.532;2023-12-07T11:56:45;95531.00;;;11.20
15680;BMP180;15488;48.114;11.532;2023-12-07T11:59:12;95532.00;;;11.30
15680;BMP180;15488;48.114;11.532;2023-12-07T12:01:45;95533.00;;;11.20
15680;BMP180;15488;48.114;11.532;2023-12-07T12:04:13;95528.00;;;11.30
15680;BMP180;15488;48.114;11.532;2023-12-07T12:06:44;95525.00;;;11.20
15680;BMP180;15488;48.114;11.532;2023-12-07T12:09:13;95522.00;;;11.30
15680;BMP180;15488;48.114;11.532;2023-12-07T12:11:48;95533.00;;;11.30
15680;BMP180;15488;48.114;11.532;2023-12-07T12:14:16;95525.00;;;11.30
15680;BMP180;15488;48.114;11.532;2023-12-07T12:16:45;95532.00;;;11.20
15680;BMP180;15488;48.114;11.532;2023-12-07T12:19:12;95528.00;;;11.30
15680;BMP180;15488;48.114;11.532;2023-12-07T12:21:41;95506.00;;;11.30
15680;BMP180;15488;48.114;11.532;2023-12-07T12:24:10;95495.00;;;11.40
15680;BMP180;15488;48.114;11.532;2023-12-07T12:26:40;95503.00;;;11.40
15680;BMP180;15488;48.114;11.532;2023-12-07T12:29:10;95505.00;;;11.30
15680;BMP180;15488;48.114;11.532;2023-12-07T12:31:38;95506.00;;;11.30
15680;BMP180;15488;48.114;11.532;2023-12-07T12:34:07;95496.00;;;11.40
15680;BMP180;15488;48.114;11.532;2023-12-07T12:36:35;95484.00;;;11.30
15680;BMP180;15488;48.114;11.532;2023-12-07T12:39:03;95488.00;;;11.30
15680;BMP180;15488;48.114;11.532;2023-12-07T12:41:31;95495.00;;;11.40
15680;BMP180;15488;48.114;11.532;2023-12-07T12:44:00;95501.00;;;11.40
15680;BMP180;15488;48.114;11.532;2023-12-07T12:46:29;95504.00;;;11.50
15680;BMP180;15488;48.114;11.532;2023-12-07T12:48:58;95491.00;;;11.40
15680;BMP180;15488;48.114;11.532;2023-12-07T12:51:26;95485.00;;;11.40
15680;BMP180;15488;48.114;11.532;2023-12-07T12:53:55;95492.00;;;11.50
15680;BMP180;15488;48.114;11.532;2023-12-07T12:56:24;95482.00;;;11.50
15680;BMP180;15488;48.114;11.532;2023-12-07T12:58:53;95478.00;;;11.50
15680;BMP180;15488;48.114;11.532;2023-12-07T13:01:22;95473.00;;;11.50
15680;BMP180;15488;48.114;11.532;2023-12-07T13:03:51;95468.00;;;11.50
15680;BMP180;15488;48.114;11.532;2023-12-07T13:06:19;95472.00;;;11.50
15680;BMP180;15488;48.114;11.532;2023-12-07T13:08:47;95472.00;;;11.60
15680;BMP180;15488;48.114;11.532;2023-12-07T13:11:15;95467.00;;;11.60
15680;BMP180;15488;48.114;11.532;2023-12-07T13:13:44;95454.00;;;11.70
15680;BMP180;15488;48.114;11.532;2023-12-07T13:16:13;95449.00;;;11.70
15680;BMP180;15488;48.114;11.532;2023-12-07T13:18:41;95447.00;;;11.70
15680;BMP180;15488;48.114;11.532;2023-12-07T13:21:10;95450.00;;;12.30
15680;BMP180;15488;48.114;11.532;2023-12-07T13:23:38;95447.00;;;13.60
15680;BMP180;15488;48.114;11.532;2023-12-07T13:26:05;95448.00;;;14.90
15680;BMP180;15488;48.114;11.532;2023-12-07T13:28:33;95445.00;;;15.90
15680;BMP180;15488;48.114;11.532;2023-12-07T13:31:01;95436.00;;;16.80
15680;BMP180;15488;48.114;11.532;2023-12-07T13:33:28;95426.00;;;17.30
15680;BMP180;15488;48.114;11.532;2023-12-07T13:35:56;95419.00;;;17.50
15680;BMP180;15488;48.114;11.532;2023-12-07T13:38:25;95416.00;;;17.60
15680;BMP180;15488;48.114;11.532;2023-12-07T13:40:56;95415.00;;;17.70
15680;BMP180;15488;48.114;11.532;2023-12-07T13:43:23;95409.00;;;17.70
15680;BMP180;15488;48.114;11.532;2023-12-07T13:45:51;95409.00;;;17.70
15680;BMP180;15488;48.114;11.532;2023-12-07T13:48:19;95409.00;;;17.60
15680;BMP180;15488;48.114;11.532;2023-12-07T13:50:46;95407.00;;;17.60
15680;BMP180;15488;48.114;11.532;2023-12-07T13:53:14;95408.00;;;17.50
15680;BMP180;15488;48.114;11.532;2023-12-07T13:55:44;95409.00;;;17.40
15680;BMP180;15488;48.114;11.532;2023-12-07T13:58:12;95411.00;;;17.30
15680;BMP180;15488;48.114;11.532;2023-12-07T14:00:39;95403.00;;;17.20
15680;BMP180;15488;48.114;11.532;2023-12-07T14:03:11;95403.00;;;17.10
15680;BMP180;15488;48.114;11.532;2023-12-07T14:05:39;95392.00;;;16.90
15680;BMP180;15488;48.114;11.532;2023-12-07T14:08:06;95395.00;;;16.60
15680;BMP180;15488;48.114;11.532;2023-12-07T14:10:34;95387.00;;;16.30
15680;BMP180;15488;48.114;11.532;2023-12-07T14:13:03;95380.00;;;16.00